sensor_id;sensor_type;location;lat;lon;timestamp;temperature;humidity
39875;DHT22;25547;52.530;13.194;2023-05-10T00:00:02;13.40;71.90
39875;DHT22;25547;52.530;13.194;2023-05-10T00:02:30;13.40;72.20
39875;DHT22;25547;52.530;13.194;2023-05-10T00:04:55;13.30;72.20
39875;DHT22;25547;52.530;13.194;2023-05-10T00:07:21;13.40;72.00
39875;DHT22;25547;52.530;13.194;2023-05-10T00:09:46;13.40;72.10
39875;DHT22;25547;52.530;13.194;2023-05-10T00:12:12;13.30;72.20
39875;DHT22;25547;52.530;13.194;2023-05-10T00:14:38;13.40;72.10
39875;DHT22;25547;52.530;13.194;2023-05-10T00:17:07;13.40;72.30
39875;DHT22;25547;52.530;13.194;2023-05-10T00:19:35;13.30;72.40
39875;DHT22;25547;52.530;13.194;2023-05-10T00:22:01;13.30;72.30
39875;DHT22;25547;52.530;13.194;2023-05-10T00:24:27;13.40;72.10
39875;DHT22;25547;52.530;13.194;2023-05-10T00:26:52;13.30;72.20
39875;DHT22;25547;52.530;13.194;2023-05-10T00:29:20;13.30;72.30
39875;DHT22;25547;52.530;13.194;2023-05-10T00:31:48;13.30;72.50
39875;DHT22;25547;52.530;13.194;2023-05-10T00:34:14;13.30;72.50
39875;DHT22;25547;52.530;13.194;2023-05-10T00:36:40;13.20;72.80
39875;DHT22;25547;52.530;13.194;2023-05-10T00:39:08;13.20;72.60
39875;DHT22;25547;52.530;13.194;2023-05-10T00:41:33;13.20;72.80
39875;DHT22;25547;52.530;13.194;2023-05-10T00:43:59;13.20;72.80
39875;DHT22;25547;52.530;13.194;2023-05-10T00:46:26;13.20;72.90
39875;DHT22;25547;52.530;13.194;2023-05-10T00:48:52;13.20;72.60
39875;DHT22;25547;52.530;13.194;2023-05-10T00:51:18;13.20;72.70
39875;DHT22;25547;52.530;13.194;2023-05-10T00:53:46;13.20;72.90
39875;DHT22;25547;52.530;13.194;2023-05-10T00:56:12;13.10;73.30
39875;DHT22;25547;52.530;13.194;2023-05-10T00:58:39;13.10;73.40
39875;DHT22;25547;52.530;13.194;2023-05-10T01:01:05;13.00;73.70
39875;DHT22;25547;52.530;13.194;2023-05-10T01:03:33;13.00;73.90
39875;DHT22;25547;52.530;13.194;2023-05-10T01:05:59;12.90;74.10
39875;DHT22;25547;52.530;13.194;2023-05-10T01:08:25;12.90;74.50
39875;DHT22;25547;52.530;13.194;2023-05-10T01:10:52;12.80;74.60
39875;DHT22;25547;52.530;13.194;2023-05-10T01:13:33;12.80;74.60
39875;DHT22;25547;52.530;13.194;2023-05-10T01:15:59;12.80;74.80
39875;DHT22;25547;52.530;13.194;2023-05-10T01:18:27;12.70;74.70
39875;DHT22;25547;52.530;13.194;2023-05-10T01:21:23;12.70;74.90
39875;DHT22;25547;52.530;13.194;2023-05-10T01:30:16;12.60;75.40
39875;DHT22;25547;52.530;13.194;2023-05-10T01:33:01;12.60;75.40
39875;DHT22;25547;52.530;13.194;2023-05-10T01:35:42;12.50;75.50
39875;DHT22;25547;52.530;13.194;2023-05-10T01:41:07;12.40;75.70
39875;DHT22;25547;52.530;13.194;2023-05-10T01:46:27;12.40;76.00
39875;DHT22;25547;52.530;13.194;2023-05-10T01:48:57;12.40;76.20
39875;DHT22;25547;52.530;13.194;2023-05-10T01:51:27;12.40;76.10
39875;DHT22;25547;52.530;13.194;2023-05-10T01:54:00;12.40;76.20
39875;DHT22;25547;52.530;13.194;2023-05-10T01:56:29;12.30;76.40
39875;DHT22;25547;52.530;13.194;2023-05-10T01:59:00;12.30;76.70
39875;DHT22;25547;52.530;13.194;2023-05-10T02:01:27;12.20;76.80
39875;DHT22;25547;52.530;13.194;2023-05-10T02:03:53;12.20;77.00
39875;DHT22;25547;52.530;13.194;2023-05-10T02:06:20;12.20;76.90
39875;DHT22;25547;52.530;13.194;2023-05-10T02:08:50;12.20;77.00
39875;DHT22;25547;52.530;13.194;2023-05-10T02:11:20;12.20;77.10
39875;DHT22;25547;52.530;13.194;2023-05-10T02:13:47;12.10;77.40
39875;DHT22;25547;52.530;13.194;2023-05-10T02:16:16;12.10;77.40
39875;DHT22;25547;52.530;13.194;2023-05-10T02:18:42;12.00;78.40
39875;DHT22;25547;52.530;13.194;2023-05-10T02:21:09;12.00;77.90
39875;DHT22;25547;52.530;13.194;2023-05-10T02:23:36;12.00;78.10
39875;DHT22;25547;52.530;13.194;2023-05-10T02:26:05;11.90;78.40
39875;DHT22;25547;52.530;13.194;2023-05-10T02:28:37;11.90;78.60
39875;DHT22;25547;52.530;13.194;2023-05-10T02:31:05;11.90;78.70
39875;DHT22;25547;52.530;13.194;2023-05-10T02:33:32;11.90;78.90
39875;DHT22;25547;52.530;13.194;2023-05-10T02:35:59;11.80;79.10
39875;DHT22;25547;52.530;13.194;2023-05-10T02:38:26;11.70;79.40
39875;DHT22;25547;52.530;13.194;2023-05-10T02:40:52;11.70;79.80
39875;DHT22;25547;52.530;13.194;2023-05-10T02:43:23;11.70;79.50
39875;DHT22;25547;52.530;13.194;2023-05-10T02:45:49;11.80;79.40
39875;DHT22;25547;52.530;13.194;2023-05-10T02:48:15;11.70;79.80
39875;DHT22;25547;52.530;13.194;2023-05-10T02:50:44;11.60;80.20
39875;DHT22;25547;52.530;13.194;2023-05-10T02:53:14;11.60;80.30
39875;DHT22;25547;52.530;13.194;2023-05-10T02:55:45;11.60;80.10
39875;DHT22;25547;52.530;13.194;2023-05-10T02:58:15;11.60;80.20
39875;DHT22;25547;52.530;13.194;2023-05-10T03:00:42;11.60;80.20
39875;DHT22;25547;52.530;13.194;2023-05-10T03:03:10;11.70;80.20
39875;DHT22;25547;52.530;13.194;2023-05-10T03:05:35;11.60;80.40
39875;DHT22;25547;52.530;13.194;2023-05-10T03:08:01;11.60;80.60
39875;DHT22;25547;52.530;13.194;2023-05-10T03:10:33;11.60;80.70
39875;DHT22;25547;52.530;13.194;2023-05-10T03:13:21;11.60;80.80
39875;DHT22;25547;52.530;13.194;2023-05-10T03:16:08;11.50;81.10
39875;DHT22;25547;52.530;13.194;2023-05-10T03:18:48;11.50;81.40
39875;DHT22;25547;52.530;13.194;2023-05-10T03:21:17;11.40;81.90
39875;DHT22;25547;52.530;13.194;2023-05-10T03:23:47;11.30;82.10
39875;DHT22;25547;52.530;13.194;2023-05-10T03:26:25;11.30;82.10
39875;DHT22;25547;52.530;13.194;2023-05-10T03:28:55;11.30;82.20
39875;DHT22;25547;52.530;13.194;2023-05-10T03:31:23;11.30;82.50
39875;DHT22;25547;52.530;13.194;2023-05-10T03:33:52;11.30;82.60
39875;DHT22;25547;52.530;13.194;2023-05-10T03:36:20;11.30;82.60
39875;DHT22;25547;52.530;13.194;2023-05-10T03:38:48;11.20;82.60
39875;DHT22;25547;52.530;13.194;2023-05-10T03:41:14;11.20;82.40
39875;DHT22;25547;52.530;13.194;2023-05-10T03:43:42;11.20;82.60
39875;DHT22;25547;52.530;13.194;2023-05-10T03:46:10;11.20;82.60
39875;DHT22;25547;52.530;13.194;2023-05-10T03:48:35;11.20;82.70
39875;DHT22;25547;52.530;13.194;2023-05-10T03:51:01;11.30;82.70
39875;DHT22;25547;52.530;13.194;2023-05-10T03:53:27;11.20;82.80
39875;DHT22;25547;52.530;13.194;2023-05-10T03:55:53;11.20;82.50
39875;DHT22;25547;52.530;13.194;2023-05-10T03:58:18;11.20;82.90
39875;DHT22;25547;52.530;13.194;2023-05-10T04:00:44;11.20;82.80
39875;DHT22;25547;52.530;13.194;2023-05-10T04:03:13;11.20;82.80
39875;DHT22;25547;52.530;13.194;2023-05-10T04:05:39;11.30;83.00
39875;DHT22;25547;52.530;13.194;2023-05-10T04:08:05;11.20;82.90
39875;DHT22;25547;52.530;13.194;2023-05-10T04:10:31;11.20;83.00
39875;DHT22;25547;52.530;13.194;2023-05-10T04:12:56;11.20;82.90
39875;DHT22;25547;52.530;13.194;2023-05-10T04:15:24;11.20;83.20
39875;DHT22;25547;52.530;13.194;2023-05-10T04:17:50;11.20;82.70
39875;DHT22;25547;52.530;13.194;2023-05-10T04:20:18;11.30;82.50
39875;DHT22;25547;52.530;13.194;2023-05-10T04:22:44;11.30;82.70
39875;DHT22;25547;52.530;13.194;2023-05-10T04:25:10;11.30;82.40
39875;DHT22;25547;52.530;13.194;2023-05-10T04:27:35;11.40;82.40
39875;DHT22;25547;52.530;13.194;2023-05-10T04:30:07;11.40;82.40
39875;DHT22;25547;52.530;13.194;2023-05-10T04:32:32;11.40;81.90
39875;DHT22;25547;52.530;13.194;2023-05-10T04:34:58;11.40;82.00
39875;DHT22;25547;52.530;13.194;2023-05-10T04:37:23;11.50;82.00
39875;DHT22;25547;52.530;13.194;2023-05-10T04:39:50;11.50;82.00
39875;DHT22;25547;52.530;13.194;2023-05-10T04:42:18;11.50;82.00
39875;DHT22;25547;52.530;13.194;2023-05-10T04:44:44;11.60;81.80
39875;DHT22;25547;52.530;13.194;2023-05-10T04:47:17;11.60;81.60
39875;DHT22;25547;52.530;13.194;2023-05-10T04:49:42;11.60;81.30
39875;DHT22;25547;52.530;13.194;2023-05-10T04:52:08;11.70;81.30
39875;DHT22;25547;52.530;13.194;2023-05-10T04:54:36;11.80;81.10
39875;DHT22;25547;52.530;13.194;2023-05-10T04:57:02;11.80;80.80
39875;DHT22;25547;52.530;13.194;2023-05-10T04:59:28;11.90;80.40
39875;DHT22;25547;52.530;13.194;2023-05-10T05:01:53;11.90;80.00
39875;DHT22;25547;52.530;13.194;2023-05-10T05:04:21;11.90;80.20
39875;DHT22;25547;52.530;13.194;2023-05-10T05:06:48;12.00;80.30
39875;DHT22;25547;52.530;13.194;2023-05-10T05:09:14;12.00;80.30
39875;DHT22;25547;52.530;13.194;2023-05-10T05:11:40;12.10;80.10
39875;DHT22;25547;52.530;13.194;2023-05-10T05:14:05;12.10;79.80
39875;DHT22;25547;52.530;13.194;2023-05-10T05:16:33;12.10;79.90
39875;DHT22;25547;52.530;13.194;2023-05-10T05:19:01;12.20;79.70
39875;DHT22;25547;52.530;13.194;2023-05-10T05:21:31;12.20;79.40
39875;DHT22;25547;52.530;13.194;2023-05-10T05:23:59;12.20;79.20
39875;DHT22;25547;52.530;13.194;2023-05-10T05:26:26;12.30;79.20
39875;DHT22;25547;52.530;13.194;2023-05-10T05:28:51;12.40;78.90
39875;DHT22;25547;52.530;13.194;2023-05-10T05:31:19;12.40;78.50
39875;DHT22;25547;52.530;13.194;2023-05-10T05:33:45;12.50;78.60
39875;DHT22;25547;52.530;13.194;2023-05-10T05:36:11;12.50;78.20
39875;DHT22;25547;52.530;13.194;2023-05-10T05:38:36;12.50;78.40
39875;DHT22;25547;52.530;13.194;2023-05-10T05:41:05;12.60;78.20
39875;DHT22;25547;52.530;13.194;2023-05-10T05:43:30;12.70;78.10
39875;DHT22;25547;52.530;13.194;2023-05-10T05:45:58;12.70;78.70
39875;DHT22;25547;52.530;13.194;2023-05-10T05:48:26;12.70;78.10
39875;DHT22;25547;52.530;13.194;2023-05-10T05:50:56;12.80;77.90
39875;DHT22;25547;52.530;13.194;2023-05-10T05:53:22;12.80;77.90
39875;DHT22;25547;52.530;13.194;2023-05-10T05:55:58;12.80;77.60
39875;DHT22;25547;52.530;13.194;2023-05-10T05:58:25;12.90;78.00
39875;DHT22;25547;52.530;13.194;2023-05-10T06:00:51;13.00;77.50
39875;DHT22;25547;52.530;13.194;2023-05-10T06:03:18;13.00;77.30
39875;DHT22;25547;52.530;13.194;2023-05-10T06:05:43;13.00;77.60
39875;DHT22;25547;52.530;13.194;2023-05-10T06:08:12;13.10;77.50
39875;DHT22;25547;52.530;13.194;2023-05-10T06:10:37;13.20;77.30
39875;DHT22;25547;52.530;13.194;2023-05-10T06:13:03;13.20;77.20
39875;DHT22;25547;52.530;13.194;2023-05-10T06:15:29;13.30;77.10
39875;DHT22;25547;52.530;13.194;2023-05-10T06:17:54;13.30;77.00
39875;DHT22;25547;52.530;13.194;2023-05-10T06:20:20;13.50;77.00
39875;DHT22;25547;52.530;13.194;2023-05-10T06:22:45;13.70;76.40
39875;DHT22;25547;52.530;13.194;2023-05-10T06:25:11;13.80;75.60
39875;DHT22;25547;52.530;13.194;2023-05-10T06:27:37;13.80;75.60
39875;DHT22;25547;52.530;13.194;2023-05-10T06:30:03;13.90;75.80
39875;DHT22;25547;52.530;13.194;2023-05-10T06:32:34;14.00;75.00
39875;DHT22;25547;52.530;13.194;2023-05-10T06:35:03;14.20;75.00
39875;DHT22;25547;52.530;13.194;2023-05-10T06:37:31;14.20;74.50
39875;DHT22;25547;52.530;13.194;2023-05-10T06:39:56;14.40;73.80
39875;DHT22;25547;52.530;13.194;2023-05-10T06:42:24;14.30;73.80
39875;DHT22;25547;52.530;13.194;2023-05-10T06:44:54;14.90;73.70
39875;DHT22;25547;52.530;13.194;2023-05-10T06:47:22;14.90;72.00
39875;DHT22;25547;52.530;13.194;2023-05-10T06:49:50;15.10;71.80
39875;DHT22;25547;52.530;13.194;2023-05-10T06:52:16;15.40;71.00
39875;DHT22;25547;52.530;13.194;2023-05-10T06:54:41;15.50;70.60
39875;DHT22;25547;52.530;13.194;2023-05-10T06:57:09;15.50;70.50
39875;DHT22;25547;52.530;13.194;2023-05-10T06:59:35;15.90;69.10
39875;DHT22;25547;52.530;13.194;2023-05-10T07:02:03;17.00;67.40
39875;DHT22;25547;52.530;13.194;2023-05-10T07:04:28;20.00;60.30
39875;DHT22;25547;52.530;13.194;2023-05-10T07:06:57;21.20;54.60
39875;DHT22;25547;52.530;13.194;2023-05-10T07:09:23;22.20;52.00
39875;DHT22;25547;52.530;13.194;2023-05-10T07:11:50;22.60;50.60
39875;DHT22;25547;52.530;13.194;2023-05-10T07:14:16;25.00;47.50
39875;DHT22;25547;52.530;13.194;2023-05-10T07:16:44;23.10;48.00
39875;DHT22;25547;52.530;13.194;2023-05-10T07:19:14;24.30;47.00
39875;DHT22;25547;52.530;13.194;2023-05-10T07:21:40;23.80;46.90
39875;DHT22;25547;52.530;13.194;2023-05-10T07:24:08;25.20;45.50
39875;DHT22;25547;52.530;13.194;2023-05-10T07:26:36;28.50;42.40
39875;DHT22;25547;52.530;13.194;2023-05-10T07:29:02;31.60;37.30
39875;DHT22;25547;52.530;13.194;2023-05-10T07:31:30;29.10;36.30
39875;DHT22;25547;52.530;13.194;2023-05-10T07:33:58;29.70;37.20
39875;DHT22;25547;52.530;13.194;2023-05-10T07:36:24;28.90;37.00
39875;DHT22;25547;52.530;13.194;2023-05-10T07:38:52;30.70;35.40
39875;DHT22;25547;52.530;13.194;2023-05-10T07:41:17;31.60;34.20
39875;DHT22;25547;52.530;13.194;2023-05-10T07:43:46;30.40;34.60
39875;DHT22;25547;52.530;13.194;2023-05-10T07:46:11;28.60;36.40
39875;DHT22;25547;52.530;13.194;2023-05-10T07:48:41;30.90;34.20
39875;DHT22;25547;52.530;13.194;2023-05-10T07:51:07;29.90;33.90
39875;DHT22;25547;52.530;13.194;2023-05-10T07:53:36;30.20;34.60
39875;DHT22;25547;52.530;13.194;2023-05-10T07:56:24;30.10;34.50
39875;DHT22;25547;52.530;13.194;2023-05-10T07:58:57;28.90;35.70
39875;DHT22;25547;52.530;13.194;2023-05-10T08:01:23;28.60;36.90
39875;DHT22;25547;52.530;13.194;2023-05-10T08:03:49;28.00;38.70
39875;DHT22;25547;52.530;13.194;2023-05-10T08:06:17;29.40;36.40
39875;DHT22;25547;52.530;13.194;2023-05-10T08:08:46;28.40;38.00
39875;DHT22;25547;52.530;13.194;2023-05-10T08:11:15;26.40;40.10
39875;DHT22;25547;52.530;13.194;2023-05-10T08:13:41;25.80;41.40
39875;DHT22;25547;52.530;13.194;2023-05-10T08:16:09;25.30;41.10
39875;DHT22;25547;52.530;13.194;2023-05-10T08:18:35;25.50;42.10
39875;DHT22;25547;52.530;13.194;2023-05-10T08:21:03;25.50;42.40
39875;DHT22;25547;52.530;13.194;2023-05-10T08:23:30;25.90;41.20
39875;DHT22;25547;52.530;13.194;2023-05-10T08:25:59;28.60;39.40
39875;DHT22;25547;52.530;13.194;2023-05-10T08:28:24;29.80;36.80
39875;DHT22;25547;52.530;13.194;2023-05-10T08:30:52;28.50;37.80
39875;DHT22;25547;52.530;13.194;2023-05-10T08:33:18;27.10;39.20
39875;DHT22;25547;52.530;13.194;2023-05-10T08:35:46;27.40;39.10
39875;DHT22;25547;52.530;13.194;2023-05-10T08:38:12;25.20;40.80
39875;DHT22;25547;52.530;13.194;2023-05-10T08:40:44;23.30;46.10
39875;DHT22;25547;52.530;13.194;2023-05-10T08:43:13;21.40;50.70
39875;DHT22;25547;52.530;13.194;2023-05-10T08:45:42;20.40;53.00
39875;DHT22;25547;52.530;13.194;2023-05-10T08:48:11;19.70;54.40
39875;DHT22;25547;52.530;13.194;2023-05-10T08:50:40;19.30;55.90
39875;DHT22;25547;52.530;13.194;2023-05-10T08:53:13;19.00;56.90
39875;DHT22;25547;52.530;13.194;2023-05-10T08:55:42;19.00;58.10
39875;DHT22;25547;52.530;13.194;2023-05-10T08:58:09;19.10;57.10
39875;DHT22;25547;52.530;13.194;2023-05-10T09:00:35;18.70;57.70
39875;DHT22;25547;52.530;13.194;2023-05-10T09:03:06;19.20;58.40
39875;DHT22;25547;52.530;13.194;2023-05-10T09:05:32;19.10;58.70
39875;DHT22;25547;52.530;13.194;2023-05-10T09:08:00;19.00;57.90
39875;DHT22;25547;52.530;13.194;2023-05-10T09:10:26;18.80;58.80
39875;DHT22;25547;52.530;13.194;2023-05-10T09:12:53;18.70;58.80
39875;DHT22;25547;52.530;13.194;2023-05-10T09:15:23;19.00;58.70
39875;DHT22;25547;52.530;13.194;2023-05-10T09:17:51;18.70;59.00
39875;DHT22;25547;52.530;13.194;2023-05-10T09:20:17;18.90;58.90
39875;DHT22;25547;52.530;13.194;2023-05-10T09:22:43;19.00;58.60
39875;DHT22;25547;52.530;13.194;2023-05-10T09:25:13;19.20;58.70
39875;DHT22;25547;52.530;13.194;2023-05-10T09:27:45;19.00;58.40
39875;DHT22;25547;52.530;13.194;2023-05-10T09:30:27;19.30;58.30
39875;DHT22;25547;52.530;13.194;2023-05-10T09:32:57;19.50;58.00
39875;DHT22;25547;52.530;13.194;2023-05-10T09:35:27;19.40;57.80
39875;DHT22;25547;52.530;13.194;2023-05-10T09:38:01;19.40;58.30
39875;DHT22;25547;52.530;13.194;2023-05-10T09:40:28;19.40;58.10
39875;DHT22;25547;52.530;13.194;2023-05-10T09:43:02;19.30;58.90
39875;DHT22;25547;52.530;13.194;2023-05-10T09:45:30;19.10;58.70
39875;DHT22;25547;52.530;13.194;2023-05-10T09:47:57;19.40;59.40
39875;DHT22;25547;52.530;13.194;2023-05-10T09:50:24;19.50;58.80
39875;DHT22;25547;52.530;13.194;2023-05-10T09:55:21;19.70;57.90
39875;DHT22;25547;52.530;13.194;2023-05-10T09:57:48;19.60;58.00
39875;DHT22;25547;52.530;13.194;2023-05-10T10:00:20;19.70;58.50
39875;DHT22;25547;52.530;13.194;2023-05-10T10:02:53;19.60;57.50
39875;DHT22;25547;52.530;13.194;2023-05-10T10:05:38;19.70;57.80
39875;DHT22;25547;52.530;13.194;2023-05-10T10:08:05;19.70;57.10
39875;DHT22;25547;52.530;13.194;2023-05-10T10:10:32;19.60;57.50
39875;DHT22;25547;52.530;13.194;2023-05-10T10:12:58;19.20;58.50
39875;DHT22;25547;52.530;13.194;2023-05-10T10:15:25;19.00;59.10
39875;DHT22;25547;52.530;13.194;2023-05-10T10:17:51;18.90;60.00
39875;DHT22;25547;52.530;13.194;2023-05-10T10:20:23;19.10;59.80
39875;DHT22;25547;52.530;13.194;2023-05-10T10:22:51;19.30;59.60
39875;DHT22;25547;52.530;13.194;2023-05-10T10:25:19;19.40;58.00
39875;DHT22;25547;52.530;13.194;2023-05-10T10:35:32;19.20;59.40
39875;DHT22;25547;52.530;13.194;2023-05-10T10:37:58;19.10;59.10
39875;DHT22;25547;52.530;13.194;2023-05-10T10:42:55;19.20;59.40
39875;DHT22;25547;52.530;13.194;2023-05-10T10:45:24;19.30;59.00
39875;DHT22;25547;52.530;13.194;2023-05-10T10:48:21;19.40;59.30
39875;DHT22;25547;52.530;13.194;2023-05-10T10:50:47;19.50;59.30
39875;DHT22;25547;52.530;13.194;2023-05-10T10:53:12;19.80;59.00
39875;DHT22;25547;52.530;13.194;2023-05-10T10:55:46;19.50;58.40
39875;DHT22;25547;52.530;13.194;2023-05-10T10:58:32;19.50;59.30
39875;DHT22;25547;52.530;13.194;2023-05-10T11:01:14;19.60;58.80
39875;DHT22;25547;52.530;13.194;2023-05-10T11:06:30;19.30;59.30
39875;DHT22;25547;52.530;13.194;2023-05-10T11:09:05;19.60;60.20
39875;DHT22;25547;52.530;13.194;2023-05-10T11:11:33;19.70;59.50
39875;DHT22;25547;52.530;13.194;2023-05-10T11:14:06;19.80;59.30
39875;DHT22;25547;52.530;13.194;2023-05-10T11:16:44;19.80;59.20
39875;DHT22;25547;52.530;13.194;2023-05-10T11:19:15;19.80;58.60
39875;DHT22;25547;52.530;13.194;2023-05-10T11:22:11;19.80;58.50
39875;DHT22;25547;52.530;13.194;2023-05-10T11:24:38;20.20;58.30
39875;DHT22;25547;52.530;13.194;2023-05-10T11:27:04;20.10;58.10
39875;DHT22;25547;52.530;13.194;2023-05-10T11:29:30;20.30;58.20
39875;DHT22;25547;52.530;13.194;2023-05-10T11:31:59;20.30;57.70
39875;DHT22;25547;52.530;13.194;2023-05-10T11:34:31;20.50;56.80
39875;DHT22;25547;52.530;13.194;2023-05-10T11:36:59;20.20;56.60
39875;DHT22;25547;52.530;13.194;2023-05-10T11:39:31;20.20;57.30
39875;DHT22;25547;52.530;13.194;2023-05-10T11:41:57;20.50;56.90
39875;DHT22;25547;52.530;13.194;2023-05-10T11:44:29;20.60;56.80
39875;DHT22;25547;52.530;13.194;2023-05-10T11:47:00;20.30;56.80
39875;DHT22;25547;52.530;13.194;2023-05-10T11:49:28;20.40;56.90
39875;DHT22;25547;52.530;13.194;2023-05-10T11:52:06;20.40;56.00
39875;DHT22;25547;52.530;13.194;2023-05-10T11:54:32;20.40;56.20
39875;DHT22;25547;52.530;13.194;2023-05-10T11:57:03;20.60;56.80
39875;DHT22;25547;52.530;13.194;2023-05-10T11:59:31;20.80;56.30
39875;DHT22;25547;52.530;13.194;2023-05-10T12:01:57;20.90;56.70
39875;DHT22;25547;52.530;13.194;2023-05-10T12:04:22;20.80;55.80
39875;DHT22;25547;52.530;13.194;2023-05-10T12:06:48;20.60;56.00
39875;DHT22;25547;52.530;13.194;2023-05-10T12:09:16;20.80;56.00
39875;DHT22;25547;52.530;13.194;2023-05-10T12:11:41;20.60;55.40
39875;DHT22;25547;52.530;13.194;2023-05-10T12:14:08;20.60;55.90
39875;DHT22;25547;52.530;13.194;2023-05-10T12:16:34;20.70;56.00
39875;DHT22;25547;52.530;13.194;2023-05-10T12:19:01;20.70;55.70
39875;DHT22;25547;52.530;13.194;2023-05-10T12:21:30;20.70;55.80
39875;DHT22;25547;52.530;13.194;2023-05-10T12:24:01;20.70;54.80
39875;DHT22;25547;52.530;13.194;2023-05-10T12:26:27;20.70;55.10
39875;DHT22;25547;52.530;13.194;2023-05-10T12:28:54;20.70;54.60
39875;DHT22;25547;52.530;13.194;2023-05-10T12:31:19;21.00;54.90
39875;DHT22;25547;52.530;13.194;2023-05-10T12:33:45;21.10;54.20
39875;DHT22;25547;52.530;13.194;2023-05-10T12:36:16;21.20;54.20
39875;DHT22;25547;52.530;13.194;2023-05-10T12:38:45;21.10;54.30
39875;DHT22;25547;52.530;13.194;2023-05-10T12:41:17;21.00;54.50
39875;DHT22;25547;52.530;13.194;2023-05-10T12:43:44;21.10;54.70
39875;DHT22;25547;52.530;13.194;2023-05-10T12:46:14;21.10;54.60
39875;DHT22;25547;52.530;13.194;2023-05-10T12:48:41;20.90;54.40
39875;DHT22;25547;52.530;13.194;2023-05-10T12:51:08;21.10;54.30
39875;DHT22;25547;52.530;13.194;2023-05-10T12:53:35;21.10;53.90
39875;DHT22;25547;52.530;13.194;2023-05-10T12:56:03;21.00;53.80
39875;DHT22;25547;52.530;13.194;2023-05-10T12:58:31;21.00;54.20
39875;DHT22;25547;52.530;13.194;2023-05-10T13:00:58;21.00;54.00
39875;DHT22;25547;52.530;13.194;2023-05-10T13:03:26;21.10;54.20
39875;DHT22;25547;52.530;13.194;2023-05-10T13:05:54;21.40;52.90
39875;DHT22;25547;52.530;13.194;2023-05-10T13:08:22;21.40;52.20
39875;DHT22;25547;52.530;13.194;2023-05-10T13:10:48;21.60;52.40
39875;DHT22;25547;52.530;13.194;2023-05-10T13:13:14;21.60;52.40
39875;DHT22;25547;52.530;13.194;2023-05-10T13:15:39;21.60;51.90
39875;DHT22;25547;52.530;13.194;2023-05-10T13:18:05;21.50;52.30
39875;DHT22;25547;52.530;13.194;2023-05-10T13:20:31;21.60;52.90
39875;DHT22;25547;52.530;13.194;2023-05-10T13:22:56;21.70;52.90
39875;DHT22;25547;52.530;13.194;2023-05-10T13:25:22;21.60;53.10
39875;DHT22;25547;52.530;13.194;2023-05-10T13:27:48;21.60;53.10
39875;DHT22;25547;52.530;13.194;2023-05-10T13:30:14;21.60;53.00
39875;DHT22;25547;52.530;13.194;2023-05-10T13:32:41;21.70;53.00
39875;DHT22;25547;52.530;13.194;2023-05-10T13:35:07;21.60;53.00
39875;DHT22;25547;52.530;13.194;2023-05-10T13:37:33;21.70;53.10
39875;DHT22;25547;52.530;13.194;2023-05-10T13:40:02;21.80;53.50
39875;DHT22;25547;52.530;13.194;2023-05-10T13:42:29;21.70;53.00
39875;DHT22;25547;52.530;13.194;2023-05-10T13:44:59;21.70;53.10
39875;DHT22;25547;52.530;13.194;2023-05-10T13:47:27;21.60;53.50
39875;DHT22;25547;52.530;13.194;2023-05-10T13:49:53;21.70;53.20
39875;DHT22;25547;52.530;13.194;2023-05-10T13:52:18;21.70;52.40
39875;DHT22;25547;52.530;13.194;2023-05-10T13:54:46;21.70;52.60
39875;DHT22;25547;52.530;13.194;2023-05-10T13:57:12;21.80;52.20
39875;DHT22;25547;52.530;13.194;2023-05-10T13:59:39;21.60;52.50
39875;DHT22;25547;52.530;13.194;2023-05-10T14:02:05;21.70;52.80
39875;DHT22;25547;52.530;13.194;2023-05-10T14:04:31;21.80;52.80
39875;DHT22;25547;52.530;13.194;2023-05-10T14:06:57;22.00;51.90
39875;DHT22;25547;52.530;13.194;2023-05-10T14:09:23;21.90;51.40
39875;DHT22;25547;52.530;13.194;2023-05-10T14:11:48;21.90;51.90
39875;DHT22;25547;52.530;13.194;2023-05-10T14:14:14;21.70;51.60
39875;DHT22;25547;52.530;13.194;2023-05-10T14:16:46;21.60;52.30
39875;DHT22;25547;52.530;13.194;2023-05-10T14:19:12;21.60;52.60
39875;DHT22;25547;52.530;13.194;2023-05-10T14:21:40;21.70;52.60
39875;DHT22;25547;52.530;13.194;2023-05-10T14:24:05;21.70;53.10
39875;DHT22;25547;52.530;13.194;2023-05-10T14:26:34;21.80;52.20
39875;DHT22;25547;52.530;13.194;2023-05-10T14:29:00;21.80;52.10
39875;DHT22;25547;52.530;13.194;2023-05-10T14:31:26;21.80;52.60
39875;DHT22;25547;52.530;13.194;2023-05-10T14:33:54;21.80;52.30
39875;DHT22;25547;52.530;13.194;2023-05-10T14:36:20;21.70;52.20
39875;DHT22;25547;52.530;13.194;2023-05-10T14:38:48;21.70;52.20
39875;DHT22;25547;52.530;13.194;2023-05-10T14:41:14;21.80;52.30
39875;DHT22;25547;52.530;13.194;2023-05-10T14:43:41;21.80;51.60
39875;DHT22;25547;52.530;13.194;2023-05-10T14:46:07;21.80;51.80
39875;DHT22;25547;52.530;13.194;2023-05-10T14:48:35;21.80;51.40
39875;DHT22;25547;52.530;13.194;2023-05-10T14:51:00;21.80;51.40
39875;DHT22;25547;52.530;13.194;2023-05-10T14:53:26;21.80;51.60
39875;DHT22;25547;52.530;13.194;2023-05-10T14:55:51;21.80;51.20
39875;DHT22;25547;52.530;13.194;2023-05-10T14:58:17;21.80;51.30
39875;DHT22;25547;52.530;13.194;2023-05-10T15:00:43;21.70;50.70
39875;DHT22;25547;52.530;13.194;2023-05-10T15:03:11;21.80;50.80
39875;DHT22;25547;52.530;13.194;2023-05-10T15:05:37;21.80;50.60
39875;DHT22;25547;52.530;13.194;2023-05-10T15:08:05;21.80;50.80
39875;DHT22;25547;52.530;13.194;2023-05-10T15:10:31;21.80;51.40
39875;DHT22;25547;52.530;13.194;2023-05-10T15:12:58;22.00;50.60
39875;DHT22;25547;52.530;13.194;2023-05-10T15:15:24;21.80;50.40
39875;DHT22;25547;52.530;13.194;2023-05-10T15:17:50;21.80;51.40
39875;DHT22;25547;52.530;13.194;2023-05-10T15:20:18;21.80;51.70
39875;DHT22;25547;52.530;13.194;2023-05-10T15:22:43;21.90;50.90
39875;DHT22;25547;52.530;13.194;2023-05-10T15:25:12;21.90;51.30
39875;DHT22;25547;52.530;13.194;2023-05-10T15:27:40;21.80;50.50
39875;DHT22;25547;52.530;13.194;2023-05-10T15:30:09;21.90;50.30
39875;DHT22;25547;52.530;13.194;2023-05-10T15:32:37;21.80;50.10
39875;DHT22;25547;52.530;13.194;2023-05-10T15:35:08;21.70;50.30
39875;DHT22;25547;52.530;13.194;2023-05-10T15:37:34;21.80;50.50
39875;DHT22;25547;52.530;13.194;2023-05-10T15:40:01;21.90;50.30
39875;DHT22;25547;52.530;13.194;2023-05-10T15:42:32;21.90;50.90
39875;DHT22;25547;52.530;13.194;2023-05-10T15:45:00;22.00;51.40
39875;DHT22;25547;52.530;13.194;2023-05-10T15:47:26;22.00;51.20